createdAt,value
2017-09-06T00:00:11.307Z,6.5
2017-09-06T00:01:13.701Z,6.5
2017-09-06T00:02:16.441Z,6.5
2017-09-06T00:03:18.843Z,6.5
2017-09-06T00:04:21.239Z,6.5
2017-09-06T00:05:23.637Z,6.5
2017-09-06T00:06:26.028Z,6.5
2017-09-06T00:07:28.422Z,6.5
2017-09-06T00:08:30.824Z,6.5
2017-09-06T00:09:33.226Z,6.5
2017-09-06T00:10:35.653Z,6.5
2017-09-06T00:11:38.021Z,6.5
2017-09-06T00:12:40.416Z,6.5
2017-09-06T00:13:42.821Z,6.5
2017-09-06T00:14:45.222Z,6.5
2017-09-06T00:15:47.954Z,6.5
2017-09-06T00:16:50.346Z,6.5
2017-09-06T00:17:52.744Z,6.5
2017-09-06T00:18:55.143Z,6.5
2017-09-06T00:19:57.889Z,6.5
2017-09-06T00:21:00.289Z,6.5
2017-09-06T00:22:02.685Z,6.5
2017-09-06T00:23:05.074Z,6.5
2017-09-06T00:24:07.469Z,6.5
2017-09-06T00:25:09.874Z,6.5
2017-09-06T00:26:12.272Z,6.5
2017-09-06T00:27:15.004Z,6.5
2017-09-06T00:28:17.408Z,6.5
2017-09-06T00:29:19.806Z,6.5
2017-09-06T00:30:22.208Z,6.5
2017-09-06T00:31:24.611Z,6.5
2017-09-06T00:32:26.995Z,6.5
2017-09-06T00:33:29.737Z,6.5
2017-09-06T00:34:32.143Z,6.5
2017-09-06T00:35:34.547Z,6.5
2017-09-06T00:36:36.939Z,6.5
2017-09-06T00:37:39.329Z,6.5
2017-09-06T00:38:41.729Z,6.5
2017-09-06T00:39:44.135Z,6.5
2017-09-06T00:40:46.531Z,6.5
2017-09-06T00:41:48.926Z,6.4
2017-09-06T00:42:51.320Z,6.5
2017-09-06T00:43:53.714Z,6.5
2017-09-06T00:44:56.119Z,6.5
2017-09-06T00:45:58.510Z,6.5
2017-09-06T00:47:01.246Z,6.5
2017-09-06T00:48:03.658Z,6.5
2017-09-06T00:49:06.048Z,6.5
2017-09-06T00:50:08.448Z,6.5
2017-09-06T00:51:10.846Z,6.5
2017-09-06T00:52:13.244Z,6.5
2017-09-06T00:53:15.643Z,6.5
2017-09-06T00:54:18.041Z,6.5
2017-09-06T00:55:20.784Z,6.5
2017-09-06T00:56:23.190Z,6.5
2017-09-06T00:57:25.590Z,6.5
2017-09-06T00:58:27.981Z,6.5
2017-09-06T00:59:30.386Z,6.5
2017-09-06T01:00:32.789Z,6.5
2017-09-06T01:01:35.180Z,6.5
2017-09-06T01:02:37.578Z,6.5
2017-09-06T01:03:39.971Z,6.5
2017-09-06T01:04:42.371Z,6.5
2017-09-06T01:05:44.774Z,6.5
2017-09-06T01:06:47.174Z,6.4
2017-09-06T01:07:49.912Z,6.4
2017-09-06T01:08:52.308Z,6.5
2017-09-06T01:09:54.710Z,6.5
2017-09-06T01:10:57.119Z,6.5
2017-09-06T01:11:59.510Z,6.5
2017-09-06T01:13:01.900Z,6.5
2017-09-06T01:14:04.303Z,6.5
2017-09-06T01:15:06.696Z,6.5
2017-09-06T01:16:09.097Z,6.5
2017-09-06T01:17:11.494Z,6.4
2017-09-06T01:18:13.891Z,6.5
2017-09-06T01:19:16.659Z,6.5
2017-09-06T01:20:19.052Z,6.5
2017-09-06T01:21:21.451Z,6.5
2017-09-06T01:22:23.851Z,6.5
2017-09-06T01:23:26.256Z,6.5
2017-09-06T01:24:28.647Z,6.5
2017-09-06T01:25:31.045Z,6.5
2017-09-06T01:26:33.447Z,6.4
2017-09-06T01:27:35.845Z,6.4
2017-09-06T01:28:38.241Z,6.5
2017-09-06T01:29:40.638Z,6.4
2017-09-06T01:30:43.027Z,6.5
2017-09-06T01:31:45.433Z,6.5
2017-09-06T01:32:47.835Z,6.4
2017-09-06T01:33:50.239Z,6.5
2017-09-06T01:34:52.979Z,6.4
2017-09-06T01:35:55.726Z,6.5
2017-09-06T01:36:58.117Z,6.4
2017-09-06T01:38:00.518Z,6.5
2017-09-06T01:39:02.908Z,6.5
2017-09-06T01:40:05.668Z,6.5
2017-09-06T01:41:08.065Z,6.4
2017-09-06T01:42:10.465Z,6.5
2017-09-06T01:43:12.864Z,6.4
2017-09-06T01:44:15.600Z,6.4
2017-09-06T01:45:17.998Z,6.5
2017-09-06T01:46:20.405Z,6.4
2017-09-06T01:47:22.805Z,6.4
2017-09-06T01:48:25.203Z,6.5
2017-09-06T01:49:27.608Z,6.5
2017-09-06T01:50:30.000Z,6.4
2017-09-06T01:51:32.402Z,6.5
2017-09-06T01:52:34.795Z,6.4
2017-09-06T01:53:37.198Z,6.5
2017-09-06T01:54:39.592Z,6.4
2017-09-06T01:55:41.993Z,6.4
2017-09-06T01:56:44.384Z,6.5
2017-09-06T01:57:46.787Z,6.4
2017-09-06T01:58:49.186Z,6.4
2017-09-06T01:59:51.577Z,6.4
2017-09-06T02:00:53.976Z,6.4
2017-09-06T02:01:56.377Z,6.5
2017-09-06T02:02:58.778Z,6.4
2017-09-06T02:04:01.179Z,6.5
2017-09-06T02:05:03.578Z,6.4
2017-09-06T02:06:05.973Z,6.4
2017-09-06T02:07:08.369Z,6.4
2017-09-06T02:08:10.769Z,6.4
2017-09-06T02:09:13.155Z,6.5
2017-09-06T02:10:15.560Z,6.4
2017-09-06T02:11:17.947Z,6.4
2017-09-06T02:12:20.350Z,6.5
2017-09-06T02:13:22.753Z,6.4
2017-09-06T02:14:25.146Z,6.5
2017-09-06T02:15:27.883Z,6.4
2017-09-06T02:16:30.283Z,6.4
2017-09-06T02:17:32.686Z,6.4
2017-09-06T02:18:35.088Z,6.5
2017-09-06T02:19:37.819Z,6.5
2017-09-06T02:20:40.221Z,6.4
2017-09-06T02:21:42.964Z,6.4
2017-09-06T02:22:45.359Z,6.4
2017-09-06T02:23:47.761Z,6.5
2017-09-06T02:24:50.155Z,6.4
2017-09-06T02:25:52.549Z,6.4
2017-09-06T02:26:54.960Z,6.5
2017-09-06T02:27:57.361Z,6.5
2017-09-06T02:29:00.092Z,6.4
2017-09-06T02:30:02.498Z,6.4
2017-09-06T02:31:04.902Z,6.4
2017-09-06T02:32:07.304Z,6.4
2017-09-06T02:33:09.700Z,6.4
2017-09-06T02:34:12.093Z,6.4
2017-09-06T02:35:14.486Z,6.5
2017-09-06T02:36:16.891Z,6.5
2017-09-06T02:37:19.289Z,6.4
2017-09-06T02:38:21.686Z,6.4
2017-09-06T02:39:24.088Z,6.4
2017-09-06T02:40:26.482Z,6.4
2017-09-06T02:41:29.224Z,6.6
2017-09-06T02:42:31.634Z,6.4
2017-09-06T02:43:34.048Z,6.4
2017-09-06T02:44:36.760Z,6.4
2017-09-06T02:45:39.164Z,6.4
2017-09-06T02:46:41.569Z,6.4
2017-09-06T02:47:44.310Z,6.4
2017-09-06T02:48:46.709Z,6.4
2017-09-06T02:49:49.104Z,6.4
2017-09-06T02:50:51.509Z,6.4
2017-09-06T02:51:53.906Z,6.5
2017-09-06T02:52:56.303Z,6.4
2017-09-06T02:53:58.708Z,6.5
2017-09-06T02:55:01.106Z,6.4
2017-09-06T02:56:03.842Z,6.4
2017-09-06T02:57:06.244Z,6.4
2017-09-06T02:58:08.643Z,6.4
2017-09-06T02:59:11.042Z,6.4
2017-09-06T03:00:13.446Z,6.4
2017-09-06T03:01:16.175Z,6.4
2017-09-06T03:02:18.585Z,6.4
2017-09-06T03:03:20.982Z,6.4
2017-09-06T03:04:23.375Z,6.4
2017-09-06T03:05:26.108Z,6.4
2017-09-06T03:06:28.510Z,6.4
2017-09-06T03:07:30.908Z,6.4
2017-09-06T03:08:33.308Z,6.4
2017-09-06T03:09:35.698Z,6.4
2017-09-06T03:10:38.094Z,6.4
2017-09-06T03:11:40.504Z,6.4
2017-09-06T03:12:42.906Z,6.4
2017-09-06T03:13:45.299Z,6.4
2017-09-06T03:14:47.703Z,6.4
2017-09-06T03:15:50.105Z,6.4
2017-09-06T03:16:52.507Z,6.4
2017-09-06T03:17:55.240Z,6.4
2017-09-06T03:18:57.642Z,6.4
2017-09-06T03:20:00.049Z,6.4
2017-09-06T03:21:02.441Z,6.4
2017-09-06T03:22:04.849Z,6.4
2017-09-06T03:23:07.247Z,6.4
2017-09-06T03:24:09.654Z,6.4
2017-09-06T03:25:12.049Z,6.4
2017-09-06T03:26:14.780Z,6.4
2017-09-06T03:27:17.181Z,6.4
2017-09-06T03:28:19.918Z,6.4
2017-09-06T03:29:22.318Z,6.4
2017-09-06T03:30:25.100Z,6.4
2017-09-06T03:31:27.502Z,6.4
2017-09-06T03:32:29.898Z,6.4
2017-09-06T03:33:32.300Z,6.4
2017-09-06T03:34:34.701Z,6.5
2017-09-06T03:35:37.094Z,6.4
2017-09-06T03:36:39.490Z,6.4
2017-09-06T03:37:41.892Z,6.4
2017-09-06T03:38:44.290Z,6.4
2017-09-06T03:39:46.681Z,6.4
2017-09-06T03:40:49.418Z,6.4
2017-09-06T03:41:51.819Z,6.4
2017-09-06T03:42:54.217Z,6.4
2017-09-06T03:43:56.620Z,6.4
2017-09-06T03:44:59.012Z,6.4
2017-09-06T03:46:01.411Z,6.4
2017-09-06T03:47:03.812Z,6.4
2017-09-06T03:48:06.214Z,6.4
2017-09-06T03:49:08.610Z,6.4
2017-09-06T03:50:11.011Z,6.4
2017-09-06T03:51:13.412Z,6.4
2017-09-06T03:52:16.144Z,6.4
2017-09-06T03:53:18.538Z,6.4
2017-09-06T03:54:21.282Z,6.4
2017-09-06T03:55:23.683Z,6.4
2017-09-06T03:56:26.086Z,6.4
2017-09-06T03:57:28.477Z,6.4
2017-09-06T03:58:30.877Z,6.4
2017-09-06T03:59:33.283Z,6.4
2017-09-06T04:00:35.674Z,6.4
2017-09-06T04:01:38.077Z,6.4
2017-09-06T04:02:40.472Z,6.4
2017-09-06T04:03:43.218Z,6.4
2017-09-06T04:04:45.607Z,6.4
2017-09-06T04:05:48.014Z,6.4
2017-09-06T04:06:50.409Z,6.4
2017-09-06T04:07:52.812Z,6.4
2017-09-06T04:08:55.208Z,6.4
2017-09-06T04:09:57.614Z,6.4
2017-09-06T04:11:00.008Z,6.4
2017-09-06T04:12:02.406Z,6.4
2017-09-06T04:13:04.807Z,6.4
2017-09-06T04:14:07.208Z,6.4
2017-09-06T04:15:09.602Z,6.4
2017-09-06T04:16:11.999Z,6.4
2017-09-06T04:17:14.400Z,6.4
2017-09-06T04:18:16.802Z,6.4
2017-09-06T04:19:19.533Z,6.4
2017-09-06T04:20:21.926Z,6.4
2017-09-06T04:21:24.329Z,6.3
2017-09-06T04:22:26.718Z,6.3
2017-09-06T04:23:29.122Z,6.4
2017-09-06T04:24:31.520Z,6.4
2017-09-06T04:25:33.908Z,6.4
2017-09-06T04:26:36.313Z,6.4
2017-09-06T04:27:38.708Z,6.4
2017-09-06T04:28:41.104Z,6.3
2017-09-06T04:29:43.503Z,6.3
2017-09-06T04:30:45.901Z,6.4
2017-09-06T04:31:48.290Z,6.3
2017-09-06T04:32:50.697Z,6.3
2017-09-06T04:33:53.090Z,6.3
2017-09-06T04:34:55.479Z,6.4
2017-09-06T04:35:57.876Z,6.3
2017-09-06T04:37:00.266Z,6.3
2017-09-06T04:38:02.666Z,6.3
2017-09-06T04:39:05.404Z,6.3
2017-09-06T04:40:08.134Z,6.3
2017-09-06T04:41:10.534Z,6.3
2017-09-06T04:42:12.938Z,6.3
2017-09-06T04:43:15.328Z,6.4
2017-09-06T04:44:17.722Z,6.3
2017-09-06T04:45:20.125Z,6.4
2017-09-06T04:46:22.860Z,6.4
2017-09-06T04:47:25.597Z,6.4
2017-09-06T04:48:27.985Z,6.4
2017-09-06T04:49:30.385Z,6.4
2017-09-06T04:50:32.778Z,6.4
2017-09-06T04:51:35.178Z,6.4
2017-09-06T04:52:37.577Z,6.4
2017-09-06T04:53:39.980Z,6.4
2017-09-06T04:54:42.374Z,6.4
2017-09-06T04:55:44.781Z,6.4
2017-09-06T04:56:47.172Z,6.4
2017-09-06T04:57:49.574Z,6.4
2017-09-06T04:58:51.965Z,6.4
2017-09-06T04:59:54.363Z,6.3
2017-09-06T05:00:56.757Z,6.4
2017-09-06T05:01:59.157Z,6.4
2017-09-06T05:03:01.549Z,6.3
2017-09-06T05:04:03.945Z,6.4
2017-09-06T05:05:06.346Z,6.3
2017-09-06T05:06:08.750Z,6.3
2017-09-06T05:07:11.148Z,6.4
2017-09-06T05:08:13.556Z,6.3
2017-09-06T05:09:15.950Z,6.3
2017-09-06T05:10:18.353Z,6.3
2017-09-06T05:11:20.748Z,6.4
2017-09-06T05:12:23.141Z,6.3
2017-09-06T05:13:25.532Z,6.4
2017-09-06T05:14:27.926Z,6.4
2017-09-06T05:15:30.330Z,6.3
2017-09-06T05:16:32.722Z,6.3
2017-09-06T05:17:35.800Z,6.3
2017-09-06T05:18:38.200Z,6.4
2017-09-06T05:19:40.934Z,6.4
2017-09-06T05:20:43.329Z,6.3
2017-09-06T05:21:45.735Z,6.3
2017-09-06T05:22:48.122Z,6.3
2017-09-06T05:23:50.521Z,6.3
2017-09-06T05:24:52.918Z,6.3
2017-09-06T05:25:55.648Z,6.3
2017-09-06T05:26:58.055Z,6.3
2017-09-06T05:28:00.785Z,6.3
2017-09-06T05:29:03.181Z,6.4
2017-09-06T05:30:05.586Z,6.4
2017-09-06T05:31:07.980Z,6.3
2017-09-06T05:32:10.372Z,6.4
2017-09-06T05:33:12.768Z,6.3
2017-09-06T05:34:15.168Z,6.3
2017-09-06T05:35:17.567Z,6.3
2017-09-06T05:36:19.972Z,6.3
2017-09-06T05:37:22.372Z,6.4
2017-09-06T05:38:24.765Z,6.4
2017-09-06T05:39:27.173Z,6.4
2017-09-06T05:40:29.566Z,6.4
2017-09-06T05:41:31.958Z,6.4
2017-09-06T05:42:34.360Z,6.3
2017-09-06T05:43:36.757Z,6.4
2017-09-06T05:44:39.149Z,6.4
2017-09-06T05:45:41.540Z,6.3
2017-09-06T05:46:44.282Z,6.3
2017-09-06T05:47:46.680Z,6.3
2017-09-06T05:48:49.407Z,6.3
2017-09-06T05:49:51.811Z,6.3
2017-09-06T05:50:54.206Z,6.4
2017-09-06T05:51:56.604Z,6.3
2017-09-06T05:52:59.004Z,6.3
2017-09-06T05:54:01.393Z,6.3
2017-09-06T05:55:03.787Z,6.3
2017-09-06T05:56:06.190Z,6.3
2017-09-06T05:57:08.583Z,6.3
2017-09-06T05:58:10.980Z,6.3
2017-09-06T05:59:13.383Z,6.3
2017-09-06T06:00:16.233Z,6.3
2017-09-06T06:01:18.637Z,6.3
2017-09-06T06:02:21.041Z,6.4
2017-09-06T06:03:23.432Z,6.3
2017-09-06T06:04:25.833Z,6.4
2017-09-06T06:05:28.242Z,6.4
2017-09-06T06:06:30.637Z,6.3
2017-09-06T06:07:33.040Z,6.3
2017-09-06T06:08:35.435Z,6.3
2017-09-06T06:09:37.830Z,6.4
2017-09-06T06:10:40.240Z,6.4
2017-09-06T06:11:42.645Z,6.4
2017-09-06T06:12:45.036Z,6.4
2017-09-06T06:13:47.437Z,6.4
2017-09-06T06:14:49.837Z,6.4
2017-09-06T06:15:52.242Z,6.4
2017-09-06T06:16:54.637Z,6.4
2017-09-06T06:17:57.041Z,6.4
2017-09-06T06:18:59.441Z,6.3
2017-09-06T06:20:01.828Z,6.4
2017-09-06T06:21:04.242Z,6.5
2017-09-06T06:22:06.637Z,6.4
2017-09-06T06:23:09.384Z,6.3
2017-09-06T06:24:12.128Z,6.4
2017-09-06T06:25:14.525Z,6.3
2017-09-06T06:26:16.918Z,6.4
2017-09-06T06:27:19.321Z,6.4
2017-09-06T06:28:21.717Z,6.3
2017-09-06T06:29:24.126Z,6.4
2017-09-06T06:30:26.521Z,6.3
2017-09-06T06:31:28.920Z,6.4
2017-09-06T06:32:31.314Z,6.4
2017-09-06T06:33:33.712Z,6.3
2017-09-06T06:34:36.101Z,6.4
2017-09-06T06:35:38.499Z,6.3
2017-09-06T06:36:40.894Z,6.4
2017-09-06T06:37:43.291Z,6.3
2017-09-06T06:38:45.693Z,6.4
2017-09-06T06:39:48.438Z,6.4
2017-09-06T06:40:50.832Z,6.4
2017-09-06T06:41:53.225Z,6.3
2017-09-06T06:42:55.989Z,6.4
2017-09-06T06:43:58.385Z,6.3
2017-09-06T06:45:00.776Z,6.3
2017-09-06T06:46:03.185Z,6.4
2017-09-06T06:47:05.579Z,6.4
2017-09-06T06:48:07.968Z,6.3
2017-09-06T06:49:10.367Z,6.4
2017-09-06T06:50:13.097Z,6.3
2017-09-06T06:51:15.497Z,6.4
2017-09-06T06:52:17.895Z,6.4
2017-09-06T06:53:20.294Z,6.4
2017-09-06T06:54:23.064Z,6.3
2017-09-06T06:55:25.428Z,6.3
2017-09-06T06:56:27.819Z,6.4
2017-09-06T06:57:30.210Z,6.4
2017-09-06T06:58:32.608Z,6.3
2017-09-06T06:59:34.996Z,6.3
2017-09-06T07:00:37.397Z,6.3
2017-09-06T07:01:39.797Z,6.3
2017-09-06T07:02:42.185Z,6.3
2017-09-06T07:03:44.588Z,6.3
2017-09-06T07:04:46.982Z,6.3
2017-09-06T07:05:49.376Z,6.4
2017-09-06T07:06:51.775Z,6.3
2017-09-06T07:07:54.169Z,6.3
2017-09-06T07:08:56.907Z,6.3
2017-09-06T07:09:59.314Z,6.3
2017-09-06T07:11:01.707Z,6.3
2017-09-06T07:12:04.097Z,6.3
2017-09-06T07:13:06.500Z,6.3
2017-09-06T07:14:08.900Z,6.3
2017-09-06T07:15:11.652Z,6.4
2017-09-06T07:16:14.064Z,6.3
2017-09-06T07:17:16.491Z,6.3
2017-09-06T07:18:18.916Z,6.3
2017-09-06T07:19:21.329Z,6.3
2017-09-06T07:20:23.762Z,6.3
2017-09-06T07:21:26.167Z,6.4
2017-09-06T07:22:28.590Z,6.4
2017-09-06T07:23:31.004Z,6.4
2017-09-06T07:24:33.410Z,6.3
2017-09-06T07:25:35.814Z,6.4
2017-09-06T07:26:38.234Z,6.3
2017-09-06T07:27:40.637Z,6.3
2017-09-06T07:28:43.064Z,6.4
2017-09-06T07:29:46.188Z,6.4
2017-09-06T07:30:48.596Z,6.4
2017-09-06T07:31:51.008Z,6.3
2017-09-06T07:32:53.428Z,6.4
2017-09-06T07:33:55.835Z,6.3
2017-09-06T07:34:58.242Z,6.4
2017-09-06T07:36:00.645Z,6.4
2017-09-06T07:37:03.071Z,6.4
2017-09-06T07:38:05.493Z,6.3
2017-09-06T07:39:08.251Z,6.3
2017-09-06T07:40:10.681Z,6.4
2017-09-06T07:41:13.095Z,6.3
2017-09-06T07:42:15.844Z,6.4
2017-09-06T07:43:18.265Z,6.4
2017-09-06T07:44:20.683Z,6.4
2017-09-06T07:45:23.122Z,6.4
2017-09-06T07:46:25.536Z,6.4
2017-09-06T07:47:27.961Z,6.4
2017-09-06T07:48:30.374Z,6.4
2017-09-06T07:49:32.793Z,6.5
2017-09-06T07:50:35.202Z,6.4
2017-09-06T07:51:37.612Z,6.4
2017-09-06T07:52:40.011Z,6.4
2017-09-06T07:53:42.748Z,6.4
2017-09-06T07:54:45.145Z,6.4
2017-09-06T07:55:47.546Z,6.5
2017-09-06T07:56:49.946Z,6.4
2017-09-06T07:57:52.343Z,6.4
2017-09-06T07:58:54.746Z,6.4
2017-09-06T07:59:57.486Z,6.4
2017-09-06T08:00:59.877Z,6.5
2017-09-06T08:02:02.273Z,6.5
2017-09-06T08:03:04.669Z,6.4
2017-09-06T08:04:07.062Z,6.5
2017-09-06T08:05:09.461Z,6.4
2017-09-06T08:06:11.863Z,6.4
2017-09-06T08:07:14.253Z,6.5
2017-09-06T08:08:16.999Z,6.4
2017-09-06T08:09:19.394Z,6.4
2017-09-06T08:10:21.797Z,6.4
2017-09-06T08:11:24.197Z,6.5
2017-09-06T08:12:26.929Z,6.4
2017-09-06T08:13:29.324Z,6.5
2017-09-06T08:14:32.067Z,6.5
2017-09-06T08:15:34.461Z,6.5
2017-09-06T08:16:36.864Z,6.5
2017-09-06T08:17:39.268Z,6.5
2017-09-06T08:18:41.662Z,6.5
2017-09-06T08:19:44.063Z,6.5
2017-09-06T08:20:46.460Z,6.5
2017-09-06T08:21:48.860Z,6.5
2017-09-06T08:22:51.255Z,6.5
2017-09-06T08:23:53.657Z,6.5
2017-09-06T08:24:56.050Z,6.5
2017-09-06T08:25:58.450Z,6.5
2017-09-06T08:27:01.191Z,6.5
2017-09-06T08:28:03.623Z,6.5
2017-09-06T08:29:05.985Z,6.5
2017-09-06T08:30:08.378Z,6.5
2017-09-06T08:31:10.783Z,6.5
2017-09-06T08:32:13.172Z,6.5
2017-09-06T08:33:15.577Z,6.5
2017-09-06T08:34:17.975Z,6.5
2017-09-06T08:35:20.369Z,6.5
2017-09-06T08:36:22.773Z,6.5
2017-09-06T08:37:25.165Z,6.5
2017-09-06T08:38:27.561Z,6.5
2017-09-06T08:39:29.957Z,6.5
2017-09-06T08:40:32.355Z,6.5
2017-09-06T08:41:34.746Z,6.5
2017-09-06T08:42:37.151Z,6.5
2017-09-06T08:43:39.552Z,6.5
2017-09-06T08:44:41.948Z,6.5
2017-09-06T08:45:44.691Z,6.5
2017-09-06T08:46:47.468Z,6.5
2017-09-06T08:47:49.864Z,6.5
2017-09-06T08:48:52.264Z,6.5
2017-09-06T08:49:54.660Z,6.5
2017-09-06T08:50:57.058Z,6.5
2017-09-06T08:51:59.461Z,6.5
2017-09-06T08:53:02.207Z,6.5
2017-09-06T08:54:04.599Z,6.5
2017-09-06T08:55:07.003Z,6.5
2017-09-06T08:56:09.400Z,6.5
2017-09-06T08:57:11.809Z,6.5
2017-09-06T08:58:14.208Z,6.5
2017-09-06T08:59:16.946Z,6.5
2017-09-06T09:00:19.341Z,6.5
2017-09-06T09:01:21.741Z,6.5
2017-09-06T09:02:24.144Z,6.5
2017-09-06T09:03:26.544Z,6.5
2017-09-06T09:04:28.944Z,6.5
2017-09-06T09:05:31.687Z,6.5
2017-09-06T09:06:34.083Z,6.5
2017-09-06T09:07:36.487Z,6.6
2017-09-06T09:08:38.884Z,6.5
2017-09-06T09:09:41.280Z,6.6
2017-09-06T09:10:43.684Z,6.6
2017-09-06T09:11:46.083Z,6.6
2017-09-06T09:12:48.488Z,6.5
2017-09-06T09:13:50.892Z,6.6
2017-09-06T09:14:53.289Z,6.6
2017-09-06T09:15:56.018Z,6.6
2017-09-06T09:16:58.411Z,6.6
2017-09-06T09:18:00.821Z,6.6
2017-09-06T09:19:03.219Z,6.5
2017-09-06T09:20:05.614Z,6.6
2017-09-06T09:21:08.020Z,6.6
2017-09-06T09:22:10.423Z,6.6
2017-09-06T09:23:12.829Z,6.6
2017-09-06T09:24:15.233Z,6.6
2017-09-06T09:25:17.622Z,6.6
2017-09-06T09:26:20.026Z,6.6
2017-09-06T09:27:22.429Z,6.6
2017-09-06T09:28:24.831Z,6.6
2017-09-06T09:29:27.237Z,6.6
2017-09-06T09:30:29.629Z,6.6
2017-09-06T09:31:32.757Z,6.6
2017-09-06T09:32:35.169Z,6.6
2017-09-06T09:33:37.567Z,6.6
2017-09-06T09:34:39.966Z,6.6
2017-09-06T09:35:42.362Z,6.6
2017-09-06T09:36:44.770Z,6.6
2017-09-06T09:37:47.177Z,6.6
2017-09-06T09:38:49.572Z,6.6
2017-09-06T09:39:52.310Z,6.6
2017-09-06T09:40:54.717Z,6.7
2017-09-06T09:41:57.124Z,6.6
2017-09-06T09:42:59.522Z,6.7
2017-09-06T09:44:02.295Z,6.7
2017-09-06T09:45:04.698Z,6.6
2017-09-06T09:46:07.096Z,6.7
2017-09-06T09:47:09.496Z,6.6
2017-09-06T09:48:11.908Z,6.7
2017-09-06T09:49:14.300Z,6.7
2017-09-06T09:50:16.706Z,6.7
2017-09-06T09:51:19.116Z,6.7
2017-09-06T09:52:21.508Z,6.7
2017-09-06T09:53:23.912Z,6.7
2017-09-06T09:54:26.311Z,6.7
2017-09-06T09:55:28.704Z,6.7
2017-09-06T09:56:31.124Z,6.7
2017-09-06T09:57:33.523Z,6.7
2017-09-06T09:58:35.919Z,6.7
2017-09-06T09:59:38.329Z,6.7
2017-09-06T10:00:40.726Z,6.7
2017-09-06T10:01:43.128Z,6.7
2017-09-06T10:02:45.541Z,6.8
2017-09-06T10:03:47.933Z,6.7
2017-09-06T10:04:50.337Z,6.8
2017-09-06T10:05:52.748Z,6.7
2017-09-06T10:06:55.139Z,6.8
2017-09-06T10:07:57.542Z,6.8
2017-09-06T10:08:59.950Z,6.7
2017-09-06T10:10:02.351Z,6.8
2017-09-06T10:11:04.750Z,6.7
2017-09-06T10:12:07.146Z,6.7
2017-09-06T10:13:09.553Z,6.7
2017-09-06T10:14:11.948Z,6.7
2017-09-06T10:15:14.354Z,6.7
2017-09-06T10:16:16.760Z,6.7
2017-09-06T10:17:19.161Z,6.7
2017-09-06T10:18:21.565Z,6.7
2017-09-06T10:19:23.973Z,6.7
2017-09-06T10:20:26.379Z,6.7
2017-09-06T10:21:28.784Z,6.7
2017-09-06T10:22:31.186Z,6.7
2017-09-06T10:23:33.592Z,6.7
2017-09-06T10:24:35.997Z,6.7
2017-09-06T10:25:38.740Z,6.8
2017-09-06T10:26:41.135Z,6.8
2017-09-06T10:27:43.542Z,6.8
2017-09-06T10:28:45.944Z,6.8
2017-09-06T10:29:48.685Z,6.7
2017-09-06T10:30:51.089Z,6.7
2017-09-06T10:31:53.499Z,6.8
2017-09-06T10:32:55.897Z,6.8
2017-09-06T10:33:58.304Z,6.8
2017-09-06T10:35:00.709Z,6.8
2017-09-06T10:36:03.141Z,6.7
2017-09-06T10:37:05.561Z,6.8
2017-09-06T10:38:07.995Z,6.8
2017-09-06T10:39:10.425Z,6.8
2017-09-06T10:40:12.860Z,6.8
2017-09-06T10:41:15.291Z,6.9
2017-09-06T10:42:17.710Z,6.9
2017-09-06T10:43:20.128Z,6.9
2017-09-06T10:44:22.559Z,7
2017-09-06T10:45:25.344Z,7
2017-09-06T10:46:27.766Z,7
2017-09-06T10:47:30.518Z,7
2017-09-06T10:48:32.950Z,7
2017-09-06T10:49:35.420Z,7
2017-09-06T10:50:38.521Z,6.9
2017-09-06T10:51:40.965Z,7
2017-09-06T10:52:43.397Z,7
2017-09-06T10:53:45.831Z,7.1
2017-09-06T10:54:48.260Z,7.1
2017-09-06T10:55:50.692Z,7.1
2017-09-06T10:56:53.109Z,7.1
2017-09-06T10:57:55.547Z,7.1
2017-09-06T10:58:58.320Z,7.1
2017-09-06T11:00:00.737Z,7.1
2017-09-06T11:01:03.167Z,7.1
2017-09-06T11:02:05.598Z,7.1
2017-09-06T11:03:08.026Z,7.1
2017-09-06T11:04:10.459Z,7.1
2017-09-06T11:05:12.870Z,7.1
2017-09-06T11:06:15.301Z,7.1
2017-09-06T11:07:17.730Z,7.1
2017-09-06T11:08:20.157Z,7.1
2017-09-06T11:09:22.583Z,7.1
2017-09-06T11:10:25.375Z,7.1
2017-09-06T11:11:27.799Z,7.1
2017-09-06T11:12:30.209Z,7.1
2017-09-06T11:13:32.635Z,7
2017-09-06T11:14:35.064Z,7
2017-09-06T11:15:37.495Z,7.1
2017-09-06T11:16:39.940Z,7.1
2017-09-06T11:17:42.372Z,7.1
2017-09-06T11:18:45.141Z,7.1
2017-09-06T11:19:47.581Z,7.1
2017-09-06T11:20:50.009Z,7
2017-09-06T11:21:52.781Z,7
2017-09-06T11:22:55.211Z,7
2017-09-06T11:23:57.638Z,7
2017-09-06T11:25:00.067Z,7
2017-09-06T11:26:02.500Z,7
2017-09-06T11:27:04.931Z,7
2017-09-06T11:28:07.361Z,7
2017-09-06T11:29:09.798Z,7
2017-09-06T11:30:12.229Z,7
2017-09-06T11:31:14.646Z,7
2017-09-06T11:32:17.067Z,7
2017-09-06T11:33:19.840Z,7
2017-09-06T11:34:22.257Z,7
2017-09-06T11:35:24.686Z,7
2017-09-06T11:36:27.128Z,7
2017-09-06T11:37:29.544Z,7
2017-09-06T11:38:31.989Z,7
2017-09-06T11:39:34.400Z,7
2017-09-06T11:40:37.175Z,7
2017-09-06T11:41:39.608Z,7
2017-09-06T11:42:42.039Z,7
2017-09-06T11:43:44.463Z,7
2017-09-06T11:44:46.903Z,7
2017-09-06T11:45:49.336Z,7
2017-09-06T11:46:51.772Z,6.9
2017-09-06T11:47:54.543Z,7
2017-09-06T11:48:56.974Z,7
2017-09-06T11:49:59.407Z,7
2017-09-06T11:51:01.842Z,7
2017-09-06T11:52:04.271Z,7
2017-09-06T11:53:06.701Z,7
2017-09-06T11:54:09.478Z,7
2017-09-06T11:55:11.910Z,7
2017-09-06T11:56:14.338Z,7.1
2017-09-06T11:57:16.759Z,7.1
2017-09-06T11:58:19.181Z,7.1
2017-09-06T11:59:21.610Z,7.1
2017-09-06T12:00:24.043Z,7.1
2017-09-06T12:01:26.801Z,7.1
2017-09-06T12:02:29.251Z,7.1
2017-09-06T12:03:31.675Z,7.2
2017-09-06T12:04:34.106Z,7.2
2017-09-06T12:05:36.877Z,7.2
2017-09-06T12:06:39.305Z,7.2
2017-09-06T12:07:41.726Z,7.2
2017-09-06T12:08:44.139Z,7.2
2017-09-06T12:09:46.569Z,7.2
2017-09-06T12:10:48.991Z,7.2
2017-09-06T12:11:51.421Z,7.2
2017-09-06T12:12:53.852Z,7.2
2017-09-06T12:13:56.282Z,7.2
2017-09-06T12:14:58.721Z,7.2
2017-09-06T12:16:01.145Z,7.3
2017-09-06T12:17:03.938Z,7.3
2017-09-06T12:18:06.701Z,7.2
2017-09-06T12:19:09.134Z,7.3
2017-09-06T12:20:11.566Z,7.3
2017-09-06T12:21:14.018Z,7.3
2017-09-06T12:22:16.445Z,7.2
2017-09-06T12:23:18.868Z,7.3
2017-09-06T12:24:21.317Z,7.3
2017-09-06T12:25:23.751Z,7.3
2017-09-06T12:26:26.174Z,7.2
2017-09-06T12:27:28.593Z,7.3
2017-09-06T12:28:31.045Z,7.3
2017-09-06T12:29:33.463Z,7.2
2017-09-06T12:30:35.884Z,7.2
2017-09-06T12:31:38.654Z,7.2
2017-09-06T12:32:41.065Z,7.2
2017-09-06T12:33:43.490Z,7.2
2017-09-06T12:34:45.923Z,7.2
2017-09-06T12:35:48.673Z,7.2
2017-09-06T12:36:51.115Z,7.2
2017-09-06T12:37:53.543Z,7.2
2017-09-06T12:38:55.962Z,7.2
2017-09-06T12:39:58.399Z,7.2
2017-09-06T12:41:00.821Z,7.2
2017-09-06T12:42:03.237Z,7.2
2017-09-06T12:43:05.661Z,7.2
2017-09-06T12:44:08.151Z,7.2
2017-09-06T12:45:10.588Z,7.2
2017-09-06T12:46:13.011Z,7.2
2017-09-06T12:47:15.429Z,7.2
2017-09-06T12:48:17.845Z,7.2
2017-09-06T12:49:20.641Z,7.2
2017-09-06T12:50:23.068Z,7.2
2017-09-06T12:51:25.489Z,7.2
2017-09-06T12:52:27.898Z,7.1
2017-09-06T12:53:30.325Z,7.2
2017-09-06T12:54:32.761Z,7.2
2017-09-06T12:55:35.187Z,7.1
2017-09-06T12:56:37.621Z,7.2
2017-09-06T12:57:40.056Z,7.2
2017-09-06T12:58:42.826Z,7.2
2017-09-06T12:59:45.257Z,7.1
2017-09-06T13:00:47.692Z,7.3
2017-09-06T13:01:50.113Z,7.1
2017-09-06T13:02:52.872Z,7.2
2017-09-06T13:03:55.303Z,7.1
2017-09-06T13:04:57.734Z,7.1
2017-09-06T13:06:00.162Z,7.1
2017-09-06T13:07:02.578Z,7.1
2017-09-06T13:08:05.009Z,7.1
2017-09-06T13:09:07.430Z,7.1
2017-09-06T13:10:09.860Z,7.1
2017-09-06T13:11:12.421Z,7.1
2017-09-06T13:12:14.981Z,7.1
2017-09-06T13:13:17.550Z,7.1
2017-09-06T13:14:20.132Z,7.1
2017-09-06T13:15:22.695Z,7.1
2017-09-06T13:16:25.249Z,7.1
2017-09-06T13:17:27.819Z,7.1
2017-09-06T13:18:30.367Z,7.1
2017-09-06T13:19:32.917Z,7.1
2017-09-06T13:20:35.455Z,7.1
2017-09-06T13:21:38.005Z,7.1
2017-09-06T13:22:40.549Z,7.1
2017-09-06T13:23:42.978Z,7.1
2017-09-06T13:24:45.728Z,7.1
2017-09-06T13:25:48.126Z,7.1
2017-09-06T13:26:50.537Z,7.2
2017-09-06T13:27:53.286Z,7.1
2017-09-06T13:28:55.689Z,7.1
2017-09-06T13:29:58.092Z,7.1
2017-09-06T13:31:00.494Z,7.1
2017-09-06T13:32:02.892Z,7.1
2017-09-06T13:33:05.649Z,7
2017-09-06T13:34:08.050Z,7
2017-09-06T13:35:10.458Z,7
2017-09-06T13:36:13.226Z,7
2017-09-06T13:37:15.631Z,7
2017-09-06T13:38:18.399Z,7
2017-09-06T13:39:20.801Z,7
2017-09-06T13:40:23.889Z,7
2017-09-06T13:41:26.636Z,6.9
2017-09-06T13:42:29.031Z,7
2017-09-06T13:43:31.785Z,7
2017-09-06T13:44:34.190Z,6.9
2017-09-06T13:45:36.587Z,7
2017-09-06T13:46:38.996Z,6.9
2017-09-06T13:47:41.395Z,6.9
2017-09-06T13:48:43.792Z,6.9
2017-09-06T13:49:46.198Z,6.9
2017-09-06T13:50:48.599Z,7.1
2017-09-06T13:51:51.009Z,6.9
2017-09-06T13:52:53.415Z,7
2017-09-06T13:53:55.816Z,6.9
2017-09-06T13:54:58.226Z,6.9
2017-09-06T13:56:00.633Z,6.9
2017-09-06T13:57:03.030Z,6.9
2017-09-06T13:58:05.437Z,6.9
2017-09-06T13:59:07.844Z,6.9
2017-09-06T14:00:10.579Z,6.9
2017-09-06T14:01:13.321Z,6.9
2017-09-06T14:02:15.729Z,6.9
2017-09-06T14:03:18.131Z,6.9
2017-09-06T14:04:20.538Z,6.9
2017-09-06T14:05:22.943Z,6.9
2017-09-06T14:06:25.341Z,6.9
2017-09-06T14:07:27.739Z,6.9
2017-09-06T14:08:30.151Z,6.9
2017-09-06T14:09:32.556Z,6.9
2017-09-06T14:10:34.953Z,6.9
2017-09-06T14:11:37.361Z,6.9
2017-09-06T14:12:39.773Z,6.9
2017-09-06T14:13:42.167Z,6.9
2017-09-06T14:14:44.575Z,6.9
2017-09-06T14:15:46.971Z,6.9
2017-09-06T14:16:49.373Z,6.9
2017-09-06T14:17:51.796Z,6.8
2017-09-06T14:18:54.194Z,6.9
2017-09-06T14:19:56.940Z,6.9
2017-09-06T14:20:59.351Z,6.8
2017-09-06T14:22:01.757Z,6.8
2017-09-06T14:23:04.163Z,6.8